Time;durP1;ratioP1;P1;durP2;ratioP2;P2;SDS_P1;SDS_P2;PMS_P1;PMS_P2;Temp;Humidity;BMP_temperature;BMP_pressure;BME280_temperature;BME280_humidity;BME280_pressure;Samples;Min_cycle;Max_cycle;Signal;HPM_P1;HPM_P2
2021/03/04 00:00:43;;;;;;;;;;;;;;;7.63;48.45;96959.30;1736233;81;21302;-57
2021/03/04 00:03:13;;;;;;;;;;;;;;;7.66;48.63;96953.13;1746363;80;20215;-56
2021/03/04 00:05:40;;;;;;;;;;;;;;;7.68;48.76;96962.91;1754499;80;20218;-56
2021/03/04 00:08:08;;;;;;;;;;;;;;;7.67;48.77;96958.21;1741256;80;20239;-59
2021/03/04 00:10:36;;;;;;;;;;;;;;;7.66;48.84;96951.84;1749141;80;20248;-57
2021/03/04 00:13:04;;;;;;;;;;;;;;;7.66;48.85;96956.53;1740166;80;21337;-57
2021/03/04 00:15:32;;;;;;;;;;;;;;;7.68;48.94;96938.38;1752221;81;20272;-58
2021/03/04 00:18:00;;;;;;;;;;;;;;;7.66;49.03;96939.75;1739108;80;20211;-59
2021/03/04 00:20:30;;;;;;;;;;;;;;;7.64;49.12;96948.04;1741663;80;21451;-59
2021/03/04 00:22:58;;;;;;;;;;;;;;;7.64;49.29;96940.30;1740761;80;20261;-59
2021/03/04 00:25:28;;;;;;;;;;;;;;;7.63;49.56;96923.59;1734540;80;21157;-59
2021/03/04 00:27:55;;;;;;;;;;;;;;;7.62;49.67;96925.34;1752383;80;21126;-58
2021/03/04 00:30:24;;;;;;;;;;;;;;;7.62;49.97;96898.23;1754576;81;20217;-59
2021/03/04 00:32:52;;;;;;;;;;;;;;;7.65;50.00;96918.73;1749077;80;20741;-57
2021/03/04 00:35:21;;;;;;;;;;;;;;;7.66;50.23;96904.88;1761340;80;20308;-57
2021/03/04 00:37:49;;;;;;;;;;;;;;;7.68;50.26;96900.48;1751533;80;21164;-58
2021/03/04 00:40:19;;;;;;;;;;;;;;;7.68;50.33;96890.59;1741704;80;20379;-54
2021/03/04 00:42:46;;;;;;;;;;;;;;;7.69;50.40;96893.09;1745511;80;20224;-56
2021/03/04 00:45:17;;;;;;;;;;;;;;;7.70;50.36;96881.03;1747911;80;20334;-56
2021/03/04 00:47:46;;;;;;;;;;;;;;;7.69;50.30;96876.30;1725370;81;20244;-55
2021/03/04 00:50:15;;;;;;;;;;;;;;;7.69;50.21;96878.89;1753131;80;21830;-56
2021/03/04 00:52:42;;;;;;;;;;;;;;;7.69;50.25;96853.53;1749936;80;20225;-56
2021/03/04 00:55:11;;;;;;;;;;;;;;;7.71;49.99;96871.91;1743424;80;20233;-57
2021/03/04 00:57:38;;;;;;;;;;;;;;;7.72;49.93;96844.33;1748345;80;20295;-56
2021/03/04 01:00:07;;;;;;;;;;;;;;;7.74;49.80;96858.80;1759982;80;20216;-56
2021/03/04 01:02:35;;;;;;;;;;;;;;;7.78;49.83;96852.19;1752784;81;22335;-57
2021/03/04 01:05:04;;;;;;;;;;;;;;;7.78;49.84;96854.33;1744572;80;20220;-56
2021/03/04 01:07:32;;;;;;;;;;;;;;;7.77;49.94;96847.48;1744556;80;20277;-56
2021/03/04 01:10:01;;;;;;;;;;;;;;;7.78;50.01;96844.00;1735613;80;20922;-56
2021/03/04 01:12:29;;;;;;;;;;;;;;;7.81;49.99;96842.54;1742996;80;20372;-56
2021/03/04 01:14:56;;;;;;;;;;;;;;;7.84;49.83;96847.51;1738798;80;21457;-58
2021/03/04 01:17:24;;;;;;;;;;;;;;;7.85;49.90;96839.32;1751612;80;20213;-56
2021/03/04 01:19:52;;;;;;;;;;;;;;;7.85;49.71;96831.10;1743414;80;20237;-56
2021/03/04 01:22:20;;;;;;;;;;;;;;;7.88;49.81;96832.70;1740269;80;20216;-56
2021/03/04 01:24:48;;;;;;;;;;;;;;;7.88;49.86;96832.23;1746968;80;20506;-56
2021/03/04 01:27:16;;;;;;;;;;;;;;;7.86;49.96;96815.98;1746416;80;20557;-56
2021/03/04 01:29:43;;;;;;;;;;;;;;;7.85;50.09;96840.14;1741543;80;20646;-56
2021/03/04 01:32:10;;;;;;;;;;;;;;;7.85;50.18;96823.82;1739043;80;20219;-56
2021/03/04 01:34:40;;;;;;;;;;;;;;;7.85;50.27;96825.11;1738607;80;20221;-56
2021/03/04 01:37:07;;;;;;;;;;;;;;;7.83;50.53;96811.42;1740113;80;20262;-57
2021/03/04 01:39:36;;;;;;;;;;;;;;;7.80;50.45;96804.70;1736562;80;22060;-60
2021/03/04 01:42:07;;;;;;;;;;;;;;;7.78;50.52;96803.10;1740615;80;20239;-57
2021/03/04 01:44:34;;;;;;;;;;;;;;;7.76;50.45;96802.36;1723957;82;20435;-57
2021/03/04 01:47:02;;;;;;;;;;;;;;;7.74;50.53;96792.94;1744087;80;20216;-56
2021/03/04 01:49:30;;;;;;;;;;;;;;;7.75;50.58;96792.50;1746734;80;20249;-57
2021/03/04 01:51:57;;;;;;;;;;;;;;;7.75;50.61;96792.50;1749154;80;20989;-58
2021/03/04 01:54:25;;;;;;;;;;;;;;;7.74;50.64;96776.16;1731827;80;20227;-57
2021/03/04 01:56:52;;;;;;;;;;;;;;;7.75;50.80;96779.59;1747016;80;20232;-57
2021/03/04 01:59:19;;;;;;;;;;;;;;;7.76;50.73;96781.23;1734044;80;20776;-57
2021/03/04 02:01:48;;;;;;;;;;;;;;;7.79;50.66;96778.48;1740519;81;21707;-57
2021/03/04 02:04:16;;;;;;;;;;;;;;;7.83;50.47;96753.30;1712308;80;21315;-57
2021/03/04 02:06:53;;;;;;;;;;;;;;;7.83;50.33;96760.61;1744150;80;20614;-56
2021/03/04 02:09:20;;;;;;;;;;;;;;;7.87;50.46;96763.38;1746817;80;20225;-56
2021/03/04 02:11:51;;;;;;;;;;;;;;;7.88;50.53;96760.36;1740631;80;20562;-56
2021/03/04 02:14:40;;;;;;;;;;;;;;;7.88;50.55;96762.47;1740294;80;20226;-56
2021/03/04 02:17:09;;;;;;;;;;;;;;;7.86;50.63;96757.86;1766879;80;21820;-55
2021/03/04 02:19:40;;;;;;;;;;;;;;;7.86;50.40;96756.56;1762331;80;20247;-56
2021/03/04 02:22:21;;;;;;;;;;;;;;;7.89;50.24;96759.42;1764640;80;20235;-56
2021/03/04 02:25:01;;;;;;;;;;;;;;;7.90;50.21;96761.91;1758056;80;20695;-56
2021/03/04 02:27:29;;;;;;;;;;;;;;;7.89;50.28;96755.54;1773408;80;20296;-55
2021/03/04 02:30:02;;;;;;;;;;;;;;;7.86;50.23;96751.41;1741275;80;21271;-56
2021/03/04 02:32:31;;;;;;;;;;;;;;;7.86;50.43;96757.00;1765489;80;20240;-56
2021/03/04 02:35:02;;;;;;;;;;;;;;;7.85;50.45;96756.19;1761988;80;20227;-56
2021/03/04 02:37:30;;;;;;;;;;;;;;;7.83;50.50;96741.23;1763417;80;20522;-57
2021/03/04 02:39:58;;;;;;;;;;;;;;;7.78;50.63;96738.09;1736996;81;20231;-55
2021/03/04 02:42:26;;;;;;;;;;;;;;;7.75;50.55;96727.93;1761899;80;21212;-56
2021/03/04 02:44:55;;;;;;;;;;;;;;;7.70;50.50;96730.77;1764828;80;20569;-56
2021/03/04 02:47:25;;;;;;;;;;;;;;;7.66;50.38;96720.69;1771104;80;20299;-56
2021/03/04 02:49:52;;;;;;;;;;;;;;;7.64;50.09;96712.20;1769490;80;20648;-56
2021/03/04 02:52:20;;;;;;;;;;;;;;;7.64;49.95;96721.24;1748799;80;20496;-57
2021/03/04 02:54:47;;;;;;;;;;;;;;;7.64;49.55;96716.91;1760018;80;22798;-57
2021/03/04 02:57:15;;;;;;;;;;;;;;;7.66;49.38;96712.47;1750642;80;20227;-57
2021/03/04 02:59:43;;;;;;;;;;;;;;;7.70;49.26;96717.03;1766393;80;20240;-57
2021/03/04 03:02:13;;;;;;;;;;;;;;;7.71;49.05;96704.47;1702144;81;20219;-59
2021/03/04 03:04:41;;;;;;;;;;;;;;;7.72;48.87;96697.92;1732023;81;20224;-57
2021/03/04 03:07:09;;;;;;;;;;;;;;;7.75;48.56;96703.39;1730881;81;22630;-59
2021/03/04 03:09:37;;;;;;;;;;;;;;;7.75;48.58;96699.52;1727872;81;20800;-57
2021/03/04 03:12:07;;;;;;;;;;;;;;;7.76;48.21;96675.33;1722610;81;20235;-56
2021/03/04 03:14:34;;;;;;;;;;;;;;;7.79;48.03;96688.07;1727697;81;20835;-57
2021/03/04 03:17:01;;;;;;;;;;;;;;;7.81;47.66;96690.12;1715910;81;20230;-57
2021/03/04 03:19:31;;;;;;;;;;;;;;;7.86;47.49;96693.27;1704086;83;21924;-56
2021/03/04 03:21:58;;;;;;;;;;;;;;;7.90;47.31;96674.08;1716904;82;20227;-56
2021/03/04 03:24:26;;;;;;;;;;;;;;;7.96;47.14;96686.27;1706580;82;20309;-57
2021/03/04 03:26:54;;;;;;;;;;;;;;;7.96;46.63;96666.88;1706904;82;20879;-57
2021/03/04 03:29:22;;;;;;;;;;;;;;;8.01;46.29;96687.67;1708725;82;20299;-58
2021/03/04 03:31:50;;;;;;;;;;;;;;;8.06;45.99;96684.35;1714812;82;21324;-57
2021/03/04 03:34:17;;;;;;;;;;;;;;;8.10;46.10;96670.31;1712757;82;20513;-57
2021/03/04 03:36:45;;;;;;;;;;;;;;;8.11;46.12;96684.91;1708060;83;20232;-57
2021/03/04 03:39:12;;;;;;;;;;;;;;;8.10;46.13;96676.77;1720411;82;20230;-56
2021/03/04 03:41:40;;;;;;;;;;;;;;;8.08;46.34;96679.09;1713826;82;20225;-55
2021/03/04 03:44:08;;;;;;;;;;;;;;;8.06;46.16;96674.48;1703739;83;22074;-55
2021/03/04 03:46:36;;;;;;;;;;;;;;;8.07;46.13;96661.91;1723574;82;20222;-56
2021/03/04 03:49:07;;;;;;;;;;;;;;;8.07;46.14;96679.53;1716793;82;20234;-55
2021/03/04 03:51:34;;;;;;;;;;;;;;;8.06;45.95;96664.97;1709341;82;20950;-55
2021/03/04 03:54:04;;;;;;;;;;;;;;;8.04;46.18;96664.23;1703763;83;20782;-55
2021/03/04 03:56:31;;;;;;;;;;;;;;;8.04;45.97;96675.02;1717821;82;22094;-56
2021/03/04 03:58:59;;;;;;;;;;;;;;;8.01;45.58;96645.03;1701188;83;20367;-56
2021/03/04 04:01:28;;;;;;;;;;;;;;;8.02;45.45;96641.98;1717603;81;20225;-57
2021/03/04 04:03:57;;;;;;;;;;;;;;;8.03;45.31;96627.68;1708343;82;20380;-56
2021/03/04 04:06:28;;;;;;;;;;;;;;;8.04;45.47;96641.42;1695291;82;20522;-57
2021/03/04 04:08:56;;;;;;;;;;;;;;;8.03;45.39;96638.02;1710978;82;21404;-56
2021/03/04 04:11:24;;;;;;;;;;;;;;;8.02;45.23;96635.52;1711054;82;20244;-57
2021/03/04 04:13:53;;;;;;;;;;;;;;;8.01;45.21;96642.45;1701514;83;20281;-57
2021/03/04 04:16:20;;;;;;;;;;;;;;;8.00;45.44;96602.49;1713474;82;20626;-57
2021/03/04 04:18:50;;;;;;;;;;;;;;;8.00;45.76;96626.56;1709259;83;20311;-58
2021/03/04 04:21:19;;;;;;;;;;;;;;;7.99;45.71;96622.78;1694627;82;21266;-57
2021/03/04 04:23:47;;;;;;;;;;;;;;;7.98;45.85;96621.14;1693656;83;20224;-58
2021/03/04 04:26:15;;;;;;;;;;;;;;;7.97;46.05;96628.51;1714421;82;20411;-59
2021/03/04 04:28:43;;;;;;;;;;;;;;;7.93;46.59;96609.31;1686636;83;20226;-59
2021/03/04 04:31:11;;;;;;;;;;;;;;;7.89;46.72;96603.97;1723566;82;20526;-58
2021/03/04 04:33:39;;;;;;;;;;;;;;;7.87;46.95;96609.66;1704294;82;22271;-58
2021/03/04 04:36:07;;;;;;;;;;;;;;;7.85;47.05;96617.16;1718377;82;20214;-58
2021/03/04 04:38:34;;;;;;;;;;;;;;;7.81;47.08;96611.34;1713246;82;20219;-58
2021/03/04 04:41:03;;;;;;;;;;;;;;;7.79;47.03;96591.20;1711098;82;20221;-59
2021/03/04 04:43:32;;;;;;;;;;;;;;;7.77;47.04;96594.82;1714523;82;20263;-58
2021/03/04 04:45:59;;;;;;;;;;;;;;;7.74;47.05;96586.78;1707800;82;21154;-58
2021/03/04 04:48:27;;;;;;;;;;;;;;;7.73;47.06;96589.01;1715195;82;20223;-57
2021/03/04 04:50:56;;;;;;;;;;;;;;;7.72;47.03;96584.28;1699961;83;20250;-57
2021/03/04 04:53:23;;;;;;;;;;;;;;;7.72;47.12;96580.41;1708140;82;20233;-57
2021/03/04 04:55:51;;;;;;;;;;;;;;;7.71;47.22;96594.70;1705265;82;21720;-57
2021/03/04 04:58:19;;;;;;;;;;;;;;;7.70;47.23;96588.72;1708471;82;21356;-57
2021/03/04 05:00:47;;;;;;;;;;;;;;;7.68;47.20;96581.97;1724600;81;20216;-57
2021/03/04 05:03:14;;;;;;;;;;;;;;;7.67;47.09;96588.89;1700909;83;20245;-57
2021/03/04 05:05:42;;;;;;;;;;;;;;;7.69;46.95;96578.47;1711048;82;20221;-60
2021/03/04 05:08:09;;;;;;;;;;;;;;;7.70;46.65;96562.89;1702438;82;20227;-58
2021/03/04 05:10:38;;;;;;;;;;;;;;;7.72;46.67;96570.55;1700291;82;21344;-56
2021/03/04 05:13:05;;;;;;;;;;;;;;;7.76;46.45;96574.59;1718623;82;21788;-57
2021/03/04 05:15:32;;;;;;;;;;;;;;;7.81;46.50;96575.62;1715927;82;20259;-56
2021/03/04 05:18:00;;;;;;;;;;;;;;;7.85;46.30;96579.70;1711087;82;20259;-56
2021/03/04 05:20:28;;;;;;;;;;;;;;;7.88;45.97;96573.88;1698155;82;20250;-58
2021/03/04 05:22:55;;;;;;;;;;;;;;;7.94;45.78;96558.45;1701893;82;21213;-58
2021/03/04 05:25:23;;;;;;;;;;;;;;;8.03;45.52;96563.55;1698181;83;20236;-57
2021/03/04 05:27:51;;;;;;;;;;;;;;;8.10;45.68;96560.48;1707428;82;20247;-58
2021/03/04 05:30:19;;;;;;;;;;;;;;;8.18;45.67;96540.63;1694579;82;20221;-69
2021/03/04 05:32:46;;;;;;;;;;;;;;;8.29;45.50;96550.32;1718501;82;20219;-57
2021/03/04 05:35:14;;;;;;;;;;;;;;;8.41;45.44;96534.50;1698878;82;21616;-59
2021/03/04 05:37:42;;;;;;;;;;;;;;;8.55;44.86;96547.87;1712316;83;20252;-58
2021/03/04 05:40:12;;;;;;;;;;;;;;;8.71;44.41;96545.16;1711250;82;20227;-56
2021/03/04 05:42:41;;;;;;;;;;;;;;;8.84;43.90;96543.44;1708806;82;20312;-55
2021/03/04 05:45:12;;;;;;;;;;;;;;;8.92;43.67;96545.55;1717106;82;20275;-56
2021/03/04 05:47:42;;;;;;;;;;;;;;;8.97;43.71;96529.25;1718673;82;22388;-55
2021/03/04 05:50:12;;;;;;;;;;;;;;;9.05;43.41;96539.11;1691739;82;20501;-54
2021/03/04 05:52:42;;;;;;;;;;;;;;;9.16;43.47;96530.16;1702454;82;20216;-57
2021/03/04 05:55:11;;;;;;;;;;;;;;;9.39;42.89;96536.39;1706450;82;20248;-57
2021/03/04 05:57:38;;;;;;;;;;;;;;;9.51;42.32;96529.12;1702571;82;20249;-54
2021/03/04 06:00:07;;;;;;;;;;;;;;;9.53;42.33;96525.95;1727194;82;21608;-56
2021/03/04 06:02:37;;;;;;;;;;;;;;;9.67;42.12;96530.66;1721125;82;20231;-57
2021/03/04 06:05:07;;;;;;;;;;;;;;;9.98;41.44;96524.20;1724660;82;20221;-57
2021/03/04 06:07:34;;;;;;;;;;;;;;;10.45;40.63;96527.86;1704788;83;20502;-56
2021/03/04 06:10:04;;;;;;;;;;;;;;;10.91;39.26;96516.42;1695368;83;20273;-57
2021/03/04 06:12:32;;;;;;;;;;;;;;;11.20;38.91;96511.66;1682469;83;21448;-57
2021/03/04 06:15:00;;;;;;;;;;;;;;;11.50;37.97;96501.23;1727216;82;20225;-58
2021/03/04 06:17:27;;;;;;;;;;;;;;;11.73;37.09;96512.48;1711454;82;20518;-56
2021/03/04 06:19:57;;;;;;;;;;;;;;;11.81;36.76;96505.37;1709407;82;20227;-56
2021/03/04 06:22:26;;;;;;;;;;;;;;;11.95;36.35;96497.38;1703892;82;20254;-59
2021/03/04 06:25:00;;;;;;;;;;;;;;;12.27;35.94;96487.05;1713162;82;21209;-56
2021/03/04 06:27:29;;;;;;;;;;;;;;;12.70;35.07;96465.39;1706300;82;20244;-55
2021/03/04 06:29:58;;;;;;;;;;;;;;;12.95;34.82;96483.41;1712209;82;20547;-56
2021/03/04 06:32:27;;;;;;;;;;;;;;;13.38;33.84;96475.97;1724519;82;20234;-58
2021/03/04 06:35:09;;;;;;;;;;;;;;;13.62;33.44;96473.09;1717806;82;20213;-56
2021/03/04 06:37:41;;;;;;;;;;;;;;;13.72;33.02;96471.83;1705503;83;22098;-55
2021/03/04 06:40:21;;;;;;;;;;;;;;;13.87;33.24;96482.73;1710454;82;20236;-57
2021/03/04 06:42:49;;;;;;;;;;;;;;;14.12;32.19;96479.64;1693766;82;20217;-66
2021/03/04 06:45:35;;;;;;;;;;;;;;;14.10;31.87;96480.27;1690748;82;20237;-55
2021/03/04 06:48:35;;;;;;;;;;;;;;;14.06;32.25;96480.66;1711629;82;20265;-55
2021/03/04 06:51:05;;;;;;;;;;;;;;;14.02;31.99;96477.98;1691047;82;21402;-57
2021/03/04 06:53:32;;;;;;;;;;;;;;;13.86;32.04;96466.24;1703576;82;20263;-56
2021/03/04 06:56:04;;;;;;;;;;;;;;;14.10;32.05;96457.27;1715163;82;20535;-57
2021/03/04 06:58:33;;;;;;;;;;;;;;;14.57;30.89;96450.94;1713586;82;20249;-57
2021/03/04 07:01:09;;;;;;;;;;;;;;;14.86;30.61;96461.43;1719002;81;20336;-56
2021/03/04 07:03:50;;;;;;;;;;;;;;;15.28;30.19;96459.81;1708408;82;21390;-55
2021/03/04 07:06:24;;;;;;;;;;;;;;;15.57;29.39;96446.31;1708202;82;20524;-56
2021/03/04 07:08:52;;;;;;;;;;;;;;;15.68;29.68;96451.38;1714451;83;20249;-58
2021/03/04 07:11:21;;;;;;;;;;;;;;;15.83;28.45;96446.52;1708322;83;20295;-57
2021/03/04 07:13:49;;;;;;;;;;;;;;;15.59;28.74;96441.76;1711591;82;20238;-56
2021/03/04 07:16:33;;;;;;;;;;;;;;;15.67;29.23;96443.67;1724415;81;22102;-56
2021/03/04 07:19:01;;;;;;;;;;;;;;;16.08;28.38;96447.63;1713209;82;20214;-57
2021/03/04 07:21:39;;;;;;;;;;;;;;;16.42;27.38;96415.60;1701146;83;20223;-55
2021/03/04 07:24:07;;;;;;;;;;;;;;;16.22;27.55;96441.09;1686981;83;20224;-57
2021/03/04 07:26:36;;;;;;;;;;;;;;;16.05;27.86;96439.25;1704411;83;20501;-55
2021/03/04 07:29:09;;;;;;;;;;;;;;;16.18;28.23;96422.25;1701978;83;21167;-57
2021/03/04 07:31:42;;;;;;;;;;;;;;;16.10;27.74;96413.46;1696886;83;20511;-56
2021/03/04 07:34:10;;;;;;;;;;;;;;;15.61;28.52;96426.28;1699020;83;20251;-58
2021/03/04 07:36:38;;;;;;;;;;;;;;;15.34;29.14;96429.66;1698988;83;20227;-57
2021/03/04 07:39:06;;;;;;;;;;;;;;;15.42;29.03;96414.58;1700250;82;20240;-56
2021/03/04 07:41:39;;;;;;;;;;;;;;;15.45;28.88;96421.65;1708435;83;22273;-57
2021/03/04 07:44:07;;;;;;;;;;;;;;;15.37;29.24;96433.30;1710651;83;20239;-56
2021/03/04 07:46:44;;;;;;;;;;;;;;;15.53;29.01;96401.33;1711466;82;20239;-58
2021/03/04 07:49:12;;;;;;;;;;;;;;;15.53;28.95;96429.28;1712591;83;20212;-57
2021/03/04 07:51:42;;;;;;;;;;;;;;;15.25;29.34;96403.89;1705949;83;20830;-55
2021/03/04 07:54:12;;;;;;;;;;;;;;;15.00;29.59;96428.85;1705562;83;21207;-58
2021/03/04 07:56:44;;;;;;;;;;;;;;;14.80;30.20;96442.42;1715247;82;20258;-59
2021/03/04 07:59:14;;;;;;;;;;;;;;;14.79;30.06;96426.39;1707835;83;20262;-58
2021/03/04 08:01:45;;;;;;;;;;;;;;;14.69;29.92;96437.33;1705424;83;20274;-56
2021/03/04 08:04:23;;;;;;;;;;;;;;;14.42;30.57;96435.34;1704213;83;20232;-56
2021/03/04 08:06:51;;;;;;;;;;;;;;;14.33;30.64;96431.77;1718278;82;22111;-56
2021/03/04 08:09:32;;;;;;;;;;;;;;;14.35;30.80;96433.77;1707554;82;20514;-56
2021/03/04 08:12:14;;;;;;;;;;;;;;;14.59;30.37;96419.48;1708535;82;20303;-56
2021/03/04 08:14:44;;;;;;;;;;;;;;;14.67;30.22;96429.62;1702587;83;22291;-56
2021/03/04 08:17:11;;;;;;;;;;;;;;;14.66;30.25;96432.38;1700116;83;20227;-58
2021/03/04 08:19:40;;;;;;;;;;;;;;;14.41;30.41;96421.48;1718921;82;23597;-57
2021/03/04 08:22:08;;;;;;;;;;;;;;;14.18;30.45;96409.98;1717388;82;20247;-56
2021/03/04 08:24:38;;;;;;;;;;;;;;;14.05;30.98;96422.45;1709884;83;20223;-56
2021/03/04 08:27:06;;;;;;;;;;;;;;;13.95;30.97;96415.09;1714111;82;20224;-56
2021/03/04 08:29:47;;;;;;;;;;;;;;;13.61;31.02;96397.13;1682185;82;37240;-57
2021/03/04 08:32:15;;;;;;;;;;;;;;;13.42;31.62;96416.11;1709128;82;21389;-57
2021/03/04 08:34:43;;;;;;;;;;;;;;;13.52;31.69;96420.06;1686194;82;20239;-57
2021/03/04 08:37:22;;;;;;;;;;;;;;;13.85;31.01;96419.43;1707356;83;20528;-57
2021/03/04 08:39:56;;;;;;;;;;;;;;;14.13;30.38;96421.30;1709536;82;20219;-57
2021/03/04 08:42:24;;;;;;;;;;;;;;;14.30;30.34;96408.55;1712896;82;20290;-57
2021/03/04 08:44:51;;;;;;;;;;;;;;;14.65;29.57;96415.86;1704340;83;22152;-57
2021/03/04 08:47:18;;;;;;;;;;;;;;;15.08;29.18;96413.76;1705304;83;20260;-57
2021/03/04 08:49:56;;;;;;;;;;;;;;;15.72;28.95;96408.75;1711208;82;20240;-55
2021/03/04 08:52:25;;;;;;;;;;;;;;;16.76;27.35;96407.08;1710160;82;20294;-55
2021/03/04 08:54:55;;;;;;;;;;;;;;;17.57;26.11;96398.62;1703874;82;20402;-56
2021/03/04 08:57:25;;;;;;;;;;;;;;;17.75;25.58;96395.41;1721977;82;22142;-55
2021/03/04 09:00:12;;;;;;;;;;;;;;;17.34;25.18;96382.60;1701942;83;20522;-55
2021/03/04 09:02:41;;;;;;;;;;;;;;;16.74;26.10;96389.35;1719728;82;20240;-56
2021/03/04 09:05:11;;;;;;;;;;;;;;;16.36;26.16;96383.00;1692945;83;20254;-57
2021/03/04 09:07:44;;;;;;;;;;;;;;;16.11;26.82;96388.45;1701903;82;20294;-56
2021/03/04 09:10:12;;;;;;;;;;;;;;;16.22;26.54;96385.28;1682781;83;21093;-57
2021/03/04 09:12:45;;;;;;;;;;;;;;;16.89;26.16;96364.77;1707484;83;20231;-56
2021/03/04 09:15:16;;;;;;;;;;;;;;;17.77;25.12;96376.89;1699141;83;20279;-57
2021/03/04 09:17:44;;;;;;;;;;;;;;;18.33;23.84;96372.78;1711814;83;20266;-57
2021/03/04 09:20:13;;;;;;;;;;;;;;;18.18;23.57;96362.09;1712026;82;20227;-58
2021/03/04 09:22:43;;;;;;;;;;;;;;;18.02;24.23;96369.44;1713623;82;21361;-56
2021/03/04 09:25:11;;;;;;;;;;;;;;;17.87;24.18;96362.33;1703795;83;20247;-57
2021/03/04 09:27:39;;;;;;;;;;;;;;;17.32;24.43;96357.00;1709375;82;20238;-57
2021/03/04 09:30:08;;;;;;;;;;;;;;;16.63;25.23;96365.55;1717177;82;20237;-56
2021/03/04 09:32:35;;;;;;;;;;;;;;;16.18;26.15;96366.44;1724414;82;20220;-56
2021/03/04 09:35:11;;;;;;;;;;;;;;;15.81;26.18;96359.03;1706317;83;21371;-57
2021/03/04 09:37:40;;;;;;;;;;;;;;;15.38;26.94;96359.14;1710651;83;20243;-57
2021/03/04 09:40:10;;;;;;;;;;;;;;;15.30;26.94;96356.92;1711145;82;20219;-57
2021/03/04 09:42:39;;;;;;;;;;;;;;;15.24;27.32;96354.38;1698737;83;20215;-56
2021/03/04 09:45:08;;;;;;;;;;;;;;;15.22;27.24;96353.70;1696683;83;20503;-52
2021/03/04 09:47:39;;;;;;;;;;;;;;;14.99;28.39;96357.95;1717571;81;21442;-53
2021/03/04 09:50:21;;;;;;;;;;;;;;;14.68;27.48;96339.86;1694692;83;20233;-53
2021/03/04 09:53:06;;;;;;;;;;;;;;;14.64;27.97;96361.20;1710821;83;20227;-55
2021/03/04 09:55:39;;;;;;;;;;;;;;;14.79;27.66;96351.14;1700963;82;20240;-53
2021/03/04 09:58:22;;;;;;;;;;;;;;;14.89;26.99;96356.67;1683423;84;20221;-54
2021/03/04 10:00:58;;;;;;;;;;;;;;;14.77;26.97;96329.08;1698819;82;22107;-55
2021/03/04 10:03:32;;;;;;;;;;;;;;;14.46;27.76;96352.72;1700753;83;20221;-54
2021/03/04 10:06:01;;;;;;;;;;;;;;;14.29;27.91;96350.78;1700688;83;20233;-54
2021/03/04 10:08:38;;;;;;;;;;;;;;;14.19;28.18;96342.95;1697087;83;20243;-54
2021/03/04 10:11:05;;;;;;;;;;;;;;;14.13;28.39;96346.12;1695818;82;20242;-55
2021/03/04 10:13:33;;;;;;;;;;;;;;;14.22;28.65;96349.70;1702219;83;21415;-54
2021/03/04 10:16:09;;;;;;;;;;;;;;;14.27;27.90;96339.67;1705090;83;20503;-54
2021/03/04 10:18:38;;;;;;;;;;;;;;;14.24;28.58;96347.77;1708295;83;20239;-53
2021/03/04 10:21:05;;;;;;;;;;;;;;;14.23;28.33;96333.09;1707606;83;20329;-54
2021/03/04 10:23:32;;;;;;;;;;;;;;;14.11;28.36;96338.89;1706546;83;20243;-54
2021/03/04 10:26:00;;;;;;;;;;;;;;;13.94;28.43;96332.08;1718243;82;21385;-54
2021/03/04 10:28:30;;;;;;;;;;;;;;;13.78;29.04;96343.06;1714060;82;20239;-54
2021/03/04 10:30:57;;;;;;;;;;;;;;;13.64;29.00;96338.22;1706522;83;20227;-54
2021/03/04 10:33:25;;;;;;;;;;;;;;;13.60;29.43;96345.48;1710413;83;20219;-54
2021/03/04 10:35:54;;;;;;;;;;;;;;;13.61;29.28;96340.59;1714845;83;20257;-54
2021/03/04 10:38:22;;;;;;;;;;;;;;;13.56;29.62;96328.93;1709296;83;21191;-54
2021/03/04 10:40:49;;;;;;;;;;;;;;;13.52;29.78;96327.08;1713178;82;20292;-56
2021/03/04 10:43:17;;;;;;;;;;;;;;;13.41;29.75;96333.20;1713602;83;20225;-55
2021/03/04 10:45:45;;;;;;;;;;;;;;;13.36;30.11;96340.59;1716145;82;20231;-54
2021/03/04 10:48:13;;;;;;;;;;;;;;;13.43;30.12;96333.89;1715160;83;20257;-57
2021/03/04 10:50:41;;;;;;;;;;;;;;;13.60;29.88;96327.69;1712408;83;22365;-55
2021/03/04 10:53:12;;;;;;;;;;;;;;;13.70;29.83;96319.44;1716584;83;20535;-56
2021/03/04 10:55:41;;;;;;;;;;;;;;;13.81;29.79;96321.09;1706753;82;20497;-55
2021/03/04 10:58:08;;;;;;;;;;;;;;;13.90;29.79;96321.59;1719100;82;20892;-57
2021/03/04 11:00:36;;;;;;;;;;;;;;;14.21;29.21;96316.27;1709834;82;21268;-55
2021/03/04 11:03:05;;;;;;;;;;;;;;;14.55;28.63;96298.84;1700348;83;21442;-55
2021/03/04 11:05:33;;;;;;;;;;;;;;;14.76;28.68;96308.33;1720187;83;20286;-55
2021/03/04 11:08:02;;;;;;;;;;;;;;;15.09;28.05;96298.65;1717965;82;20531;-55
2021/03/04 11:10:30;;;;;;;;;;;;;;;15.31;28.15;96285.36;1707982;82;20660;-55
2021/03/04 11:12:57;;;;;;;;;;;;;;;15.46;27.58;96291.77;1710176;83;20239;-55
2021/03/04 11:15:27;;;;;;;;;;;;;;;15.36;27.12;96282.66;1700463;83;21319;-55
2021/03/04 11:17:54;;;;;;;;;;;;;;;15.14;27.69;96267.36;1706691;81;20506;-55
2021/03/04 11:20:25;;;;;;;;;;;;;;;15.11;27.84;96268.45;1729843;83;20530;-55
2021/03/04 11:22:52;;;;;;;;;;;;;;;15.17;27.78;96268.38;1724127;83;20284;-54
2021/03/04 11:25:20;;;;;;;;;;;;;;;15.33;27.94;96268.58;1723514;83;20239;-54
2021/03/04 11:27:47;;;;;;;;;;;;;;;15.57;27.23;96261.96;1740664;81;21199;-55
2021/03/04 11:30:17;;;;;;;;;;;;;;;15.71;27.27;96259.34;1728704;83;20498;-55
2021/03/04 11:32:44;;;;;;;;;;;;;;;15.69;26.84;96263.88;1731119;82;20226;-54
2021/03/04 11:35:12;;;;;;;;;;;;;;;15.44;26.81;96247.92;1720445;83;20223;-55
2021/03/04 11:37:41;;;;;;;;;;;;;;;15.19;27.45;96258.10;1724745;82;20218;-53
2021/03/04 11:40:10;;;;;;;;;;;;;;;15.06;27.53;96247.17;1720004;81;21368;-55
2021/03/04 11:42:39;;;;;;;;;;;;;;;14.81;27.49;96252.57;1727612;81;20235;-54
2021/03/04 11:45:08;;;;;;;;;;;;;;;14.45;28.18;96245.83;1725345;83;20224;-54
2021/03/04 11:47:35;;;;;;;;;;;;;;;14.15;28.34;96241.14;1729517;83;20292;-55
2021/03/04 11:50:05;;;;;;;;;;;;;;;13.97;28.49;96235.80;1725785;82;20535;-55
2021/03/04 11:52:32;;;;;;;;;;;;;;;13.91;28.83;96229.82;1698493;83;21180;-55
2021/03/04 11:55:01;;;;;;;;;;;;;;;13.97;28.92;96227.48;1724459;83;20220;-54
2021/03/04 11:57:30;;;;;;;;;;;;;;;14.07;28.75;96224.87;1724839;81;20353;-55
2021/03/04 11:59:57;;;;;;;;;;;;;;;14.12;28.75;96229.67;1740247;81;20258;-54
2021/03/04 12:02:26;;;;;;;;;;;;;;;14.23;28.62;96224.80;1726045;83;20223;-55
2021/03/04 12:04:55;;;;;;;;;;;;;;;14.35;28.60;96222.36;1722637;83;21289;-54
2021/03/04 12:07:25;;;;;;;;;;;;;;;14.44;28.91;96214.16;1725852;82;20294;-55
2021/03/04 12:09:52;;;;;;;;;;;;;;;14.66;28.50;96207.33;1717026;83;20241;-54
2021/03/04 12:12:20;;;;;;;;;;;;;;;14.91;28.33;96208.94;1728682;81;20244;-54
2021/03/04 12:14:47;;;;;;;;;;;;;;;15.00;27.42;96208.09;1728669;82;20215;-54
2021/03/04 12:17:16;;;;;;;;;;;;;;;14.94;27.95;96215.68;1728897;83;21198;-54
2021/03/04 12:19:46;;;;;;;;;;;;;;;14.93;27.94;96207.00;1709328;82;20240;-54
2021/03/04 12:22:14;;;;;;;;;;;;;;;15.01;27.89;96204.48;1716856;82;20271;-54
2021/03/04 12:24:43;;;;;;;;;;;;;;;15.00;27.76;96192.88;1707754;83;20319;-54
2021/03/04 12:27:11;;;;;;;;;;;;;;;15.04;27.99;96187.22;1709385;82;20228;-55
2021/03/04 12:29:38;;;;;;;;;;;;;;;15.21;27.45;96198.70;1702405;83;21017;-55
2021/03/04 12:32:07;;;;;;;;;;;;;;;15.23;27.31;96184.98;1702662;83;20240;-55
2021/03/04 12:34:34;;;;;;;;;;;;;;;15.16;27.06;96190.45;1706586;83;20263;-54
2021/03/04 12:37:02;;;;;;;;;;;;;;;15.06;27.31;96192.30;1712046;83;20235;-54
2021/03/04 12:39:29;;;;;;;;;;;;;;;15.10;27.47;96181.91;1710822;83;20223;-54
2021/03/04 12:41:56;;;;;;;;;;;;;;;15.22;27.40;96187.25;1713662;82;21858;-54
2021/03/04 12:44:30;;;;;;;;;;;;;;;15.21;26.89;96181.71;1839451;76;20252;-55
2021/03/04 12:46:57;;;;;;;;;;;;;;;15.13;27.22;96172.94;1836505;77;20251;-54
2021/03/04 12:49:26;;;;;;;;;;;;;;;14.98;27.29;96177.84;1841750;77;20214;-55
2021/03/04 12:51:56;;;;;;;;;;;;;;;14.79;27.51;96176.16;1837301;77;20249;-53
2021/03/04 12:54:24;;;;;;;;;;;;;;;14.44;28.04;96170.62;1829625;77;21202;-54
2021/03/04 12:56:55;;;;;;;;;;;;;;;14.21;28.52;96156.25;1836351;77;20231;-54
2021/03/04 12:59:23;;;;;;;;;;;;;;;14.21;28.45;96162.31;1841211;77;20218;-54
2021/03/04 13:01:50;;;;;;;;;;;;;;;14.23;28.57;96170.00;1813983;77;20294;-55